createdAt,value
2022-11-13T00:00:28.378Z,5.07
2022-11-13T00:15:33.168Z,4.90
2022-11-13T00:30:33.146Z,5.13
2022-11-13T00:45:33.281Z,4.10
2022-11-13T01:00:35.532Z,4.47
2022-11-13T01:15:24.027Z,4.73
2022-11-13T01:30:23.239Z,4.47
2022-11-13T01:45:23.277Z,4.47
2022-11-13T02:00:23.242Z,4.57
2022-11-13T02:15:23.326Z,4.67
2022-11-13T02:30:26.826Z,4.43
2022-11-13T02:45:23.282Z,4.55
2022-11-13T03:00:26.599Z,4.45
2022-11-13T03:15:23.593Z,4.40
2022-11-13T03:30:24.370Z,4.50
2022-11-13T03:45:23.710Z,4.50
2022-11-13T04:00:31.893Z,4.63
2022-11-13T04:15:24.735Z,4.67
2022-11-13T04:30:23.646Z,4.50
2022-11-13T04:45:23.601Z,4.50
2022-11-13T05:00:31.374Z,4.43
2022-11-13T05:15:23.434Z,4.57
2022-11-13T05:30:23.545Z,4.28
2022-11-13T05:45:23.631Z,4.20
2022-11-13T06:00:38.638Z,4.40
2022-11-13T06:15:23.569Z,4.32
2022-11-13T06:30:26.739Z,4.63
2022-11-13T06:45:23.902Z,4.20
2022-11-13T07:00:37.620Z,4.20
2022-11-13T07:15:23.918Z,4.18
2022-11-13T07:30:31.238Z,4.20
2022-11-13T07:45:23.770Z,4.67
2022-11-13T08:00:26.878Z,4.22
2022-11-13T08:15:24.219Z,4.22
2022-11-13T08:30:29.474Z,4.20
2022-11-13T08:45:23.873Z,4.18
2022-11-13T09:00:24.383Z,4.18
2022-11-13T09:15:24.708Z,4.40
2022-11-13T09:30:24.523Z,4.40
2022-11-13T09:45:24.522Z,4.43
2022-11-13T10:00:32.946Z,4.55
2022-11-13T10:15:24.218Z,4.50
2022-11-13T10:30:23.973Z,4.78
2022-11-13T10:45:23.896Z,5.10
2022-11-13T11:00:33.438Z,5.30
2022-11-13T11:15:23.883Z,5.63
2022-11-13T11:30:28.809Z,5.70
2022-11-13T11:45:23.273Z,6.07
2022-11-13T12:00:34.886Z,6.37
2022-11-13T12:15:23.123Z,6.27
2022-11-13T12:30:23.496Z,6.38
2022-11-13T12:45:23.414Z,6.68
2022-11-13T13:00:29.148Z,6.95
2022-11-13T13:15:25.252Z,7.20
2022-11-13T13:30:25.442Z,7.62
2022-11-13T13:45:25.505Z,7.90
2022-11-13T14:00:44.652Z,7.85
2022-11-13T14:15:23.422Z,8.03
2022-11-13T14:30:24.851Z,7.93
2022-11-13T14:45:23.761Z,7.82
2022-11-13T15:00:33.012Z,7.68
2022-11-13T15:15:23.465Z,7.63
2022-11-13T15:30:25.895Z,7.27
2022-11-13T15:45:23.832Z,6.78
2022-11-13T16:00:37.498Z,6.80
2022-11-13T16:15:23.898Z,6.18
2022-11-13T16:30:24.535Z,6.05
2022-11-13T16:45:23.776Z,5.90
2022-11-13T17:00:28.903Z,5.55
2022-11-13T17:15:23.863Z,5.28
2022-11-13T17:30:24.241Z,5.12
2022-11-13T17:45:23.997Z,5.07
2022-11-13T18:00:35.369Z,4.90
2022-11-13T18:15:24.448Z,4.75
2022-11-13T18:30:24.392Z,4.73
2022-11-13T18:45:23.691Z,4.62
2022-11-13T19:00:29.059Z,4.67
2022-11-13T19:15:23.701Z,4.45
2022-11-13T19:30:25.588Z,4.12
2022-11-13T19:45:24.359Z,4.37
2022-11-13T20:00:23.947Z,4.00
2022-11-13T20:15:24.009Z,3.70
2022-11-13T20:30:31.152Z,3.60
2022-11-13T20:45:23.911Z,3.73
2022-11-13T21:00:29.556Z,3.60
2022-11-13T21:15:24.076Z,3.28
2022-11-13T21:30:24.076Z,3.10
2022-11-13T21:45:24.233Z,3.15
2022-11-13T22:00:31.723Z,2.92
2022-11-13T22:15:33.203Z,2.50
2022-11-13T22:30:33.444Z,2.40
2022-11-13T22:45:33.270Z,2.35
2022-11-13T23:00:47.870Z,4.00
2022-11-13T23:15:23.306Z,2.33
2022-11-13T23:30:23.355Z,1.90
2022-11-13T23:45:23.470Z,2.10
